Tiempo atmosférico en la estación meteorológica de Cervera De Pisuerga, Palencia (1140 m.)



Fecha
DESCASC
Temp. máxima en grados centígrados (hora)
DESCASC
Temp. mínima en grados centígrados (hora)
DESCASC
Temp. media en grados centígrados
DESCASC
Racha de viento máxima en m/sg (hora)
DESCASC
Velocidad máxima media en intervalos de 10 minutos(hora)
DESCASC
Precipitaciones diarias en mm
DESCASC
Precipitaciones de 00:00 a 06:00 en mm
DESCASC
Precipitaciones de 06:00 a 12:00 en mm
DESCASC
Precipitaciones de 12:00 a 18:00 en mm
DESCASC
Precipitaciones de 18:00 a 24:00 en mm
DESCASC
18-10-2018 15.1 (13:10) 7.8 (01:10) 11.5 9.72 (19:50) 4.44 (19:50) 0 0 0 0 0
17-10-2018 19.6 (15:50) 5.7 (05:30) 12.7 9.72 (14:30) 6.11 (14:40) 0.2 0.2 0 0 0
16-10-2018 19.6 (15:10) 4.1 (06:30) 11.9 7.22 (15:20) 4.44 (00:40) 0.2 0 0.2 0 0
15-10-2018 14.5 (17:10) 2.5 (08:40) 8.5 7.5 (19:30) 4.44 (19:30) 1 0.4 0.2 0.2 0.2
14-10-2018 15.4 (00:20) 5.3 (00:00) 10.3 16.67 (06:50) 8.61 (06:40) 7.6 1.2 4 2 0.4
13-10-2018 23 (16:50) 12.4 (00:00) 17.7 11.39 (13:10) 5.56 (13:30) 0 0 0 0 0
12-10-2018 17.8 (17:00) 11.2 (00:00) 14.5 13.33 (07:40) 6.11 (00:30) 0 0 0 0 0
11-10-2018 15.2 (15:10) 11.2 (11:10) 13.2 20.28 (06:40) 10.56 (07:00) 7.8 0 4 3.8 0
10-10-2018 18.3 (17:30) 4.9 (00:00) 11.6 13.61 (22:30) 6.94 (22:30) 0.4 0 0 0.4 0
09-10-2018 19.6 (15:10) 4.2 (08:50) 11.9 10.56 (19:20) 5.28 (19:20) 0 0 0 0 0
08-10-2018 17.3 (16:50) 6 (00:00) 11.6 7.5 (04:50) 3.89 (04:50) 0 0 0 0 0
07-10-2018 12.2 (14:30) 2.5 (05:30) 7.3 -- (--) -- (--) 0 0 0 0 0
06-10-2018 22.1 (15:10) 5.3 (23:30) 13.7 -- (--) -- (--) 0 0 0 0 0
05-10-2018 27.6 (15:40) 9 (08:40) 18.3 11.39 (15:20) 4.44 (08:00) 0 0 0 0 0
04-10-2018 27.6 (16:40) 8.2 (00:00) 17.9 7.22 (05:30) 4.17 (04:20) 0 0 0 0 0
03-10-2018 25.3 (15:50) 7.3 (00:00) 16.3 9.17 (17:40) 5.83 (12:30) 0 0 0 0 0
02-10-2018 22.7 (15:30) 2 (00:00) 12.4 7.22 (14:00) 4.17 (02:20) 0 0 0 0 0
01-10-2018 16 (15:20) 6.2 (00:00) 11.1 12.5 (21:20) 6.94 (21:30) 0 0 0 0 0
30-09-2018 24.9 (15:00) 7.9 (00:00) 16.4 8.33 (19:40) 4.44 (08:20) 0 0 0 0 0
29-09-2018 25 (14:20) 11 (00:00) 18 7.22 (17:40) 3.61 (17:50) 0 0 0 0 0
28-09-2018 28.3 (15:50) 12.3 (00:00) 20.3 8.06 (14:50) 3.33 (14:50) 0 0 0 0 0
27-09-2018 28.9 (16:00) 11.2 (00:00) 20 7.22 (14:30) 4.44 (21:10) -- 0 0 -- 0
26-09-2018 27.8 (17:00) 7.3 (00:00) 17.5 -- (--) -- (--) 0 0 0 0 0
25-09-2018 23.1 (15:50) 1.5 (00:00) 12.3 -- (--) -- (--) 0 0 0 0 0
24-09-2018 21.4 (15:20) 7 (00:00) 14.2 -- (--) -- (--) 0 0 0 0 0
23-09-2018 31.9 (15:10) 12.2 (07:30) 22 8.89 (16:20) 4.17 (13:40) 0 0 0 0 0
22-09-2018 30 (16:20) 8.6 (08:00) 19.3 -- (--) -- (--) 0 0 0 0 0
21-09-2018 25.4 (16:30) 9.6 (06:20) 17.5 6.94 (14:40) 4.17 (14:30) 0 0 0 0 0
20-09-2018 -- (--) -- (--) -- 11.94 (18:50) 5.56 (18:00) 0 0 0 0 0

Gráficas

Temp. máximas Temp. mínimas Temp. medias Precipitaciones Rachas de viento máximas Velocidades máximas media en intervalos de 10 minutos

Datos horarios

Fecha y hora oficial Temperatura (ºC) Velocidad del viento (km/h) Dirección del viento Racha (km/h) Dirección de racha Precipitación (mm) Presión (hPa) Tendencia (hPa) Humedad (%)
2018-10-19 23:00:00 11.3 10 Noroeste 30 Oeste 0 892.5 1.3 67
2018-10-19 22:00:00 11.6 11 Noroeste 31 Norte 0 892.1 1.5 69
2018-10-19 21:00:00 11.3 12 Noroeste 26 Norte 0 891.6 1.2 72
2018-10-19 20:00:00 11.8 12 Norte 26 Norte 0 891.2 0.9 73
2018-10-19 19:00:00 12.6 10 Noroeste 24 Noroeste 0 890.6 0.7 75
2018-10-19 18:00:00 13.1 12 Noroeste 27 Norte 0 890.4 0.4 74
2018-10-19 17:00:00 14.1 10 Norte 27 Norte 0 890.3 0 69
2018-10-19 16:00:00 14.2 14 Noroeste 31 Norte 0 889.9 -0.8 69
2018-10-19 15:00:00 15.1 11 Noroeste 24 Noroeste 0 890 -0.6 67
2018-10-19 14:00:00 14.6 8 Norte 30 Norte 0 890.3 0.5 68
2018-10-19 13:00:00 14.2 13 Noroeste 35 Norte 0 890.7 1.2 71
2018-10-19 12:00:00 12.4 12 Norte 26 Norte 0 890.6 1.9 78
2018-10-19 11:00:00 12 9 Norte 26 Norte 0 889.8 1.8 78
2018-10-19 10:00:00 11.5 8 Norte 27 Norte 0 889.5 1.3 77
2018-10-19 09:00:00 11 9 Norte 29 Norte 0 888.7 0.4 76
2018-10-19 08:00:00 10.3 11 Norte 24 Oeste 0 888 -0.5 73
2018-10-19 07:00:00 10.3 12 Norte 32 Norte 0 888.2 -0.2 73
2018-10-19 06:00:00 10.8 10 Norte 32 Norte 0 888.3 0.3 70
2018-10-19 05:00:00 10 10 Norte 25 Noroeste 0 888.5 0.2 75
2018-10-19 04:00:00 10 8 Norte 19 Noroeste 0 888.4 0.1 78
2018-10-19 03:00:00 10 7 Noroeste 21 Noroeste 0 888 -0.2 75
2018-10-19 02:00:00 10.3 7 Oeste 24 Norte 0 888.3 0.1 77
2018-10-19 01:00:00 10.5 6 Norte 30 Norte 0 888.3 0.2 82
2018-10-19 00:00:00 11.3 11 Norte 33 Noroeste 0 888.2 0.1 80
2018-10-18 23:00:00 11.1 12 Norte 28 Norte 0 888.2 0.7 82
2018-10-18 22:00:00 10.7 8 Norte 26 Norte 0 888.1 1.4 84
2018-10-18 21:00:00 10.6 11 Norte 27 Norte 0 888.1 1.4 83
2018-10-18 20:00:00 10.5 12 Norte 35 Norte 0 887.5 0.8 82
2018-10-18 19:00:00 10.9 12 Norte 33 Norte 0 886.7 0.2 79
2018-10-18 18:00:00 12.3 13 Norte 31 Norte 0 886.7 0.1 73
2018-10-18 17:00:00 13.7 8 Norte 26 Nordeste 0 886.7 -0.4 65
2018-10-18 16:00:00 14 10 Norte 34 Noroeste 0 886.5 -0.7 65
2018-10-18 15:00:00 14.2 7 Noroeste 31 Norte 0 886.6 -0.6 60
2018-10-18 14:00:00 14.3 13 Norte 30 Norte 0 887.1 0.3 61
2018-10-18 13:00:00 14.7 10 Norte 29 Noroeste 0 887.2 0.6 61
2018-10-18 12:00:00 13.1 14 Noroeste -- -- 0 887.2 1 70
2018-10-18 11:00:00 12.5 -- -- -- -- 0 886.8 1.1 72
2018-10-18 10:00:00 11.2 12 Norte 33 Noroeste 0 886.6 1 82
2018-10-18 09:00:00 8.8 5 Noroeste 23 Oeste 0 886.2 0.9 89
2018-10-18 08:00:00 8.3 5 Noroeste 20 Oeste 0 885.7 0.3 93
2018-10-18 07:00:00 8.1 4 Noroeste 20 Oeste 0 885.6 0 91
2018-10-18 06:00:00 9 5 Noroeste 18 Oeste 0 885.3 -0.6 89
2018-10-18 05:00:00 9.3 7 Norte 19 Oeste 0 885.4 -0.6 88
2018-10-18 04:00:00 9.3 4 Noroeste 19 Oeste 0 885.6 -0.3 84
2018-10-18 03:00:00 8.8 10 Oeste 21 Oeste 0 885.9 0 86
2018-10-18 02:00:00 8.4 10 Oeste 18 Oeste 0 886 0.1 88
2018-10-18 01:00:00 7.9 6 Oeste 20 Oeste 0 885.9 0.2 89
2018-10-18 00:00:00 8.3 7 Norte 18 Oeste 0 885.9 0.3 89
2018-10-17 23:00:00 8.5 7 Noroeste 17 Oeste 0 885.9 0.6 87
2018-10-17 22:00:00 9.3 4 Noroeste 21 Oeste 0 885.7 0.9 79
2018-10-17 21:00:00 9.7 4 Noroeste 18 Oeste 0 885.6 0.9 76
2018-10-17 20:00:00 10.9 0 Calma 21 Sudoeste 0 885.3 0.3 68
2018-10-17 19:00:00 14.2 8 Sur 28 Sur 0 884.8 -0.7 54
2018-10-17 18:00:00 14.8 14 Sur 31 Sur 0 884.7 -1.3 51
2018-10-17 17:00:00 15.8 11 Sur 31 Sur 0 885 -1.8 51
2018-10-17 16:00:00 18.7 17 Sur 34 Sur 0 885.5 -2 40
2018-10-17 15:00:00 18.9 17 Sur 35 Sur 0 886 -1.9 38
2018-10-17 14:00:00 17.5 15 Sudoeste 30 Sur 0 886.8 -1.7 48
2018-10-17 13:00:00 15.5 8 Sudoeste 25 Sur 0 887.5 -1.2 53
2018-10-17 12:00:00 14 4 Nordeste 18 Sudoeste 0 887.9 -0.8 70
2018-10-17 11:00:00 10.4 9 Sudoeste 20 Oeste 0 888.5 -0.4 84
2018-10-17 10:00:00 7.2 13 Oeste 21 Oeste 0 888.7 -0.3 93
2018-10-17 09:00:00 5.9 13 Oeste 21 Oeste 0 888.7 -0.2 94
2018-10-17 08:00:00 6 13 Oeste 21 Oeste 0 888.9 -0.2 94
2018-10-17 07:00:00 6.5 14 Noroeste 23 Oeste 0 889 -0.4 95
2018-10-17 06:00:00 6.1 15 Oeste 22 Oeste 0.2 888.9 -0.8 95
2018-10-17 05:00:00 6.7 14 Oeste 22 Oeste 0 889.1 -0.9 95
2018-10-17 04:00:00 6.8 15 Oeste 22 Oeste 0 889.4 -0.7 93
2018-10-17 03:00:00 7.5 10 Noroeste 22 Oeste 0 889.7 -0.6 94
2018-10-17 02:00:00 7.7 12 Noroeste 23 Oeste 0 890 -0.4 94
2018-10-17 01:00:00 8.1 10 Noroeste 22 Oeste 0 890.1 0 94
2018-10-17 00:00:00 8.1 7 Noroeste 20 Oeste 0 890.3 0.6 94
2018-10-16 23:00:00 8.6 8 Noroeste 20 Oeste 0 890.4 1.1 92
2018-10-16 22:00:00 9.7 4 Noroeste 18 Oeste 0 890.1 1.2 88
2018-10-16 21:00:00 10.8 5 Noroeste 10 Noroeste 0 889.7 1.2 81
2018-10-16 20:00:00 11.8 3 Nordeste 10 Noroeste 0 889.3 0.9 76
2018-10-16 19:00:00 13.6 4 Este 12 Sur 0 888.9 0.6 67
2018-10-16 18:00:00 15.8 3 Sudoeste 13 Sudeste 0 888.5 0.4 54
2018-10-16 17:00:00 17 7 Sudeste 17 Sudeste 0 888.4 0.2 49
2018-10-16 16:00:00 15.9 4 Este 26 Sudoeste 0 888.3 0 54
2018-10-16 15:00:00 19.5 11 Sur 25 Sur 0 888.1 0.1 42
2018-10-16 14:00:00 17.6 9 Sur 24 Sur 0 888.2 0.3 48
2018-10-16 13:00:00 16.7 9 Sudeste 22 Sur 0 888.3 1.3 50
2018-10-16 12:00:00 14.5 11 Sudeste 21 Sur 0.2 888 1.7 65
2018-10-16 11:00:00 11.1 10 Sur 18 Oeste 0 887.9 2.1 85
2018-10-16 10:00:00 6.5 13 Oeste 18 Oeste 0 887 1.5 99
2018-10-16 09:00:00 5.1 10 Noroeste 21 Oeste 0 886.3 1.2 99
2018-10-16 08:00:00 4.5 14 Oeste 19 Oeste 0 885.8 1 99
2018-10-16 07:00:00 4.3 12 Oeste 17 Oeste 0 885.5 1.1 99
2018-10-16 06:00:00 4.9 10 Noroeste 19 Oeste 0 885.1 1.1 98
2018-10-16 05:00:00 5.1 9 Oeste 19 Oeste 0 884.8 0.8 98
2018-10-16 04:00:00 5.3 10 Oeste 18 Oeste 0 884.4 0.6 96
2018-10-16 03:00:00 5.8 10 Noroeste 19 Oeste 0 884 0.3 95
2018-10-16 02:00:00 6.3 12 Oeste 21 Oeste 0 884 0.6 94
2018-10-16 01:00:00 6.7 9 Oeste 21 Oeste 0 883.8 1 93
2018-10-16 00:00:00 7.4 9 Noroeste 14 Oeste 0 883.7 1.3 91
2018-10-15 23:00:00 7.9 4 Este 18 Nordeste 0 883.4 1.8 91
2018-10-15 22:00:00 7.9 7 Nordeste 19 Nordeste 0.2 882.8 2 91
2018-10-15 21:00:00 8.3 5 Sur 18 Nordeste 0 882.4 2.2 88
2018-10-15 20:00:00 8.9 7 Sudeste 27 Sur 0 881.6 1.9 84
2018-10-15 19:00:00 9.9 7 Este 21 Sur 0 880.8 1.2 77
2018-10-15 18:00:00 11.6 10 Sudeste 24 Sur 0 880.2 0.3 71
2018-10-15 17:00:00 14.3 8 Este 23 Sur 0.2 879.7 -0.5 61
2018-10-15 16:00:00 11.9 13 Sudeste 23 Sudeste 0 879.6 -1 68
2018-10-15 15:00:00 12.8 10 Sudeste 21 Oeste 0 879.9 0.2 68
2018-10-15 14:00:00 10.9 9 Sudoeste 19 Sur 0 880.2 0.4 71
2018-10-15 13:00:00 9.7 13 Sur 26 Sur 0 880.6 0.7 73
2018-10-15 12:00:00 9.5 7 Nordeste 16 Nordeste 0 879.7 -0.2 77
2018-10-15 11:00:00 8 4 Sudoeste 14 Sudoeste 0 879.8 0.8 94
2018-10-15 10:00:00 5.6 4 Sur 23 Sudoeste 0.2 879.9 0.5 99
2018-10-15 09:00:00 3.9 11 Sudoeste 24 Sudoeste 0 879.9 0.1 99
2018-10-15 08:00:00 3.2 6 Nordeste 14 Nordeste 0 879 -0.9 99
2018-10-15 07:00:00 3.3 7 Norte 18 Nordeste 0 879.4 -1 99
2018-10-15 06:00:00 3.3 5 Norte 21 Sudoeste 0 879.8 -1 98
2018-10-15 05:00:00 3.4 8 Oeste 16 Oeste 0 879.9 -1.4 98
2018-10-15 04:00:00 4 6 Oeste 16 Oeste 0.2 880.4 -1.6 98
2018-10-15 03:00:00 4.6 4 Oeste 17 Oeste 0 880.8 -1.3 97
2018-10-15 02:00:00 5.4 8 Oeste 17 Oeste 0 881.3 -0.7 97
2018-10-15 01:00:00 6.1 8 Norte 15 Oeste 0.2 882 0.5 96
2018-10-15 00:00:00 6 3 Sur 15 Sur 0 882.1 0.5 95
2018-10-14 23:00:00 5.4 10 Sur 17 Nordeste 0 882 0.7 94
2018-10-14 22:00:00 5.6 6 Noroeste 17 Nordeste 0.2 881.5 1.1 93
2018-10-14 21:00:00 6.7 7 Oeste 18 Oeste 0 881.6 1.2 91
2018-10-14 20:00:00 6.9 6 Norte 19 Nordeste 0.2 881.3 0.7 92
2018-10-14 19:00:00 7.3 9 Norte 22 Noroeste 0 880.4 0 91
2018-10-14 18:00:00 7.8 8 Norte 21 Oeste 0.2 880.4 0.4 92
2018-10-14 17:00:00 7.4 12 Oeste 23 Oeste 0.2 880.6 0.8 90
2018-10-14 16:00:00 8.6 5 Noroeste 23 Norte 0.2 880.4 0.9 91
2018-10-14 15:00:00 8.8 8 Norte 21 Nordeste 0.2 880 0.9 90
2018-10-14 14:00:00 9 7 Noroeste 17 Nordeste 0.4 879.8 1.8 89
2018-10-14 13:00:00 8.6 7 Oeste 19 Sur 0.8 879.5 1.9 92
2018-10-14 12:00:00 7.9 6 Norte 23 Nordeste 0.8 879.1 2.8 92
2018-10-14 11:00:00 9.3 6 Este 22 Sur 0 878 1.8 94
2018-10-14 10:00:00 9.2 13 Sudeste 23 Sur 0 877.6 1.4 92
2018-10-14 09:00:00 10.4 7 Sudeste 45 Sur 1.8 876.3 -0.2 92
2018-10-14 08:00:00 11.1 24 Sur 51 Sur 0.8 876.2 -1.1 91
2018-10-14 07:00:00 11.6 26 Sur 60 Sur 0.6 876.2 -1.8 83
2018-10-14 06:00:00 12.6 28 Sudoeste 54 Sur 0.6 876.5 -2.5 75
2018-10-14 05:00:00 11.9 7 Este 14 Sudeste 0 877.3 -1.9 88
2018-10-14 04:00:00 12.5 6 Nordeste 40 Sur 0.6 878 -2.5 86
2018-10-14 03:00:00 14.2 12 Sur 34 Sudoeste 0 879 -2.3 75
2018-10-14 02:00:00 15 18 Sur 47 Sur 0 879.2 -2.7 67
2018-10-14 01:00:00 14.6 21 Sur 43 Sur 0 880.5 -2.3 68
2018-10-14 00:00:00 14.9 11 Sur 27 Sudoeste 0 881.3 -2.6 67
2018-10-13 23:00:00 13.1 8 Sur 17 Noroeste 0 881.9 -2.7 77
2018-10-13 22:00:00 14.4 6 Noroeste 18 Sur 0 882.8 -2.3 70
2018-10-13 21:00:00 16.3 8 Sur 18 Sur 0 883.9 -1.5 61
2018-10-13 20:00:00 17 8 Sudoeste 35 Sudoeste 0 884.6 -1.3 58
2018-10-13 19:00:00 18.3 11 Sudoeste 39 Sur 0 885.1 -1.6 54
2018-10-13 18:00:00 20.8 17 Sur 38 Sudoeste 0 885.4 -2.1 45
2018-10-13 17:00:00 22.8 13 Sudoeste 27 Sudoeste 0 885.9 -2.4 43
2018-10-13 16:00:00 22.4 15 Sur 39 Sur 0 886.7 -2.3 45
2018-10-13 15:00:00 20.6 15 Sudoeste 40 Sur 0 887.5 -2.3 50
2018-10-13 14:00:00 22 20 Sudoeste 41 Sur 0 888.3 -2.2 46
2018-10-13 13:00:00 21.8 14 Sudoeste 32 Sur 0 889 -1.5 48
2018-10-13 12:00:00 17.4 6 Sur 32 Sudoeste 0 889.8 -0.3 63
2018-10-13 11:00:00 16.4 13 Sudoeste 30 Sudoeste 0 890.5 0.5 65
2018-10-13 10:00:00 15.3 6 Sur 30 Sur 0 890.5 0.7 71
2018-10-13 09:00:00 13.6 4 Sudoeste 17 Sudoeste 0 890.1 0.3 78
2018-10-13 08:00:00 14 4 Sudoeste 32 Sur 0 890 0.2 75
2018-10-13 07:00:00 14.1 9 Sudoeste 31 Oeste 0 889.8 -0.6 76
2018-10-13 06:00:00 13.4 6 Sudeste 19 Noroeste 0 889.8 -1.2 78
2018-10-13 05:00:00 14.4 10 Sudoeste 31 Sur 0 889.8 -1.5 74
2018-10-13 04:00:00 13.8 8 Sudoeste 32 Noroeste 0 890.4 -1.4 75
2018-10-13 03:00:00 13.8 8 Oeste 34 Oeste 0 891 -1.4 73
2018-10-13 02:00:00 14 10 Sudoeste 29 Oeste 0 891.3 -1.5 69
2018-10-13 01:00:00 13.8 6 Oeste 26 Sur 0 891.8 -1 70
2018-10-13 00:00:00 14 6 Oeste 28 Sudoeste 0 892.4 -0.3 68
2018-10-12 23:00:00 13.5 12 Sudoeste 28 Sudoeste 0 892.8 -0.1 72
2018-10-12 22:00:00 11.8 10 Noroeste 15 Noroeste 0 892.8 0.2 79
2018-10-12 21:00:00 12.2 5 Noroeste 19 Oeste 0 892.7 -0.1 77
2018-10-12 20:00:00 13 5 Sudoeste 16 Oeste 0 892.9 0 71
2018-10-12 19:00:00 14.7 7 Sudoeste 18 Sudoeste 0 892.6 -0.2 64
2018-10-12 18:00:00 15.5 9 Sudoeste 30 Sudoeste 0 892.8 0.2 60
2018-10-12 17:00:00 17.7 11 Sudoeste 33 Sur 0 892.9 0.2 52
2018-10-12 16:00:00 14.9 15 Sudoeste 36 Sur 0 892.8 0.2 62
2018-10-12 15:00:00 15.4 13 Sudoeste 30 Sur 0 892.6 0.6 60
2018-10-12 14:00:00 14.9 10 Oeste 40 Sur 0 892.7 1 61
2018-10-12 13:00:00 15.4 15 Sudoeste 32 Sur 0 892.6 1.5 55
2018-10-12 12:00:00 16.6 20 Sur 31 Sur 0 892 1.9 48
2018-10-12 11:00:00 14.3 16 Sudoeste 42 Sur 0 891.7 2.2 54
2018-10-12 10:00:00 12.2 15 Oeste 35 Oeste 0 891.1 2.3 68
2018-10-12 09:00:00 12.1 15 Oeste 43 Oeste 0 890.1 1.5 69
2018-10-12 08:00:00 12.2 17 Sudoeste 48 Sur 0 889.5 1.3 69
2018-10-12 07:00:00 11.8 13 Oeste 47 Oeste 0 888.8 0.6 70
2018-10-12 06:00:00 11.3 14 Oeste 45 Oeste 0 888.6 0.5 72
2018-10-12 05:00:00 11.4 13 Sudoeste 33 Sudoeste 0 888.2 0.3 74
2018-10-12 04:00:00 12 14 Sudoeste 43 Oeste 0 888.2 1 68
2018-10-12 03:00:00 12.2 12 Sudoeste 35 Oeste 0 888.1 1.1 66
2018-10-12 02:00:00 12.2 12 Sudoeste 32 Sudoeste 0 887.9 1 71
2018-10-12 01:00:00 12.3 19 Sudoeste 43 Sudoeste 0 887.2 1 75
2018-10-12 00:00:00 12.3 19 Sudoeste 46 Sudoeste 0 887 1.2 75
2018-10-11 23:00:00 12.4 17 Sudoeste 41 Oeste 0 886.9 1.8 75
2018-10-11 22:00:00 12.5 13 Sudoeste 33 Sur 0 886.2 1.8 77
2018-10-11 21:00:00 12.9 14 Sudoeste 36 Sur 0 885.8 2.2 78
2018-10-11 20:00:00 13 12 Sudoeste 33 Sur 0 885.1 1.9 77
2018-10-11 19:00:00 14 9 Sudoeste 30 Sudoeste 0 884.4 1.7 73
2018-10-11 18:00:00 14.3 15 Sudoeste 43 Sur 0 883.6 2.2 71
2018-10-11 17:00:00 14.4 17 Sudoeste 36 Sur 0 883.2 1.6 73
2018-10-11 16:00:00 14.9 14 Sudoeste 32 Sur 0 882.7 1.7 71
2018-10-11 15:00:00 14.7 22 Sudoeste 44 Sudoeste 1.6 881.4 0.9 82
2018-10-11 14:00:00 12.5 22 Sudoeste 57 Sudoeste 1 881.6 1.2 91
2018-10-11 13:00:00 12 25 Sudoeste 61 Sur 1.2 881 0.5 92
2018-10-11 12:00:00 11.7 34 Sur 66 Sudoeste 0.2 880.5 1.1 92
2018-10-11 11:00:00 11.3 26 Sudoeste 49 Sudoeste 2 880.4 1.5 92
2018-10-11 10:00:00 11.5 21 Sudoeste 56 Sur 1.8 880.5 1.9 91
2018-10-11 09:00:00 12.3 35 Sudoeste 66 Sudoeste 0 879.4 0.6 80
2018-10-11 08:00:00 12.1 32 Sudoeste 60 Sur 0 878.9 -0.2 81
2018-10-11 07:00:00 12 38 Sudoeste 73 Sudoeste 0 878.6 -0.6 81
2018-10-11 06:00:00 12.5 26 Sudoeste 59 Sur 0 878.8 -0.7 70
2018-10-11 05:00:00 12.7 23 Sudoeste 53 Sur 0 879.1 -0.7 67
2018-10-11 04:00:00 12.5 22 Sudoeste 51 Sudoeste 0 879.2 -0.4 68
2018-10-11 03:00:00 12.5 26 Sudoeste 61 Sur 0 879.5 0 67
2018-10-11 02:00:00 12.5 17 Sudoeste 53 Oeste 0 879.8 0.5 67
2018-10-11 01:00:00 12.4 20 Sudoeste 54 Sudoeste 0 879.6 0.7 66
2018-10-11 00:00:00 12.4 21 Sudoeste 48 Sudoeste 0 879.5 1 59
2018-10-10 23:00:00 12.9 22 Sudoeste 49 Sudoeste 0 879.3 1.2 60
2018-10-10 22:00:00 14 19 Sudoeste 47 Sur 0 878.9 1.3 51
2018-10-10 21:00:00 14.1 18 Sur 37 Sur 0 878.5 0.9 49
2018-10-10 20:00:00 13.7 12 Sudoeste 42 Sur 0 878.1 0.4 46
2018-10-10 19:00:00 15.1 20 Sudoeste 35 Sur 0 877.6 -0.5 42
2018-10-10 18:00:00 16.2 18 Sudoeste 37 Sudoeste 0 877.6 -0.6 40
2018-10-10 17:00:00 18.1 17 Sudoeste 32 Sur 0 877.7 -0.8 39
2018-10-10 16:00:00 17.4 13 Sudoeste 28 Sur 0 878.1 -0.5 48
2018-10-10 15:00:00 14.6 15 Sudoeste 42 Sudoeste 0.4 878.2 -0.5 60
2018-10-10 14:00:00 15.7 16 Sudoeste 46 Sur 0 878.5 -0.1 49
2018-10-10 13:00:00 16.7 19 Sur 32 Sur 0 878.6 -0.4 46
2018-10-10 12:00:00 14.3 16 Sur 28 Sur 0 878.7 -0.2 54
2018-10-10 11:00:00 12.8 13 Sudeste 24 Sur 0 878.6 -0.5 59
2018-10-10 10:00:00 7.3 8 Sudeste 19 Sur 0 879 -0.6 90
2018-10-10 09:00:00 5.5 5 Norte 18 Oeste 0 878.9 -0.7 91
2018-10-10 08:00:00 6.1 7 Este 19 Oeste 0 879.1 -1.2 90
2018-10-10 07:00:00 5.7 8 Oeste 18 Oeste 0 879.6 -1.1 92
2018-10-10 06:00:00 5 13 Oeste 20 Oeste 0 879.6 -1.9 91
2018-10-10 05:00:00 5 5 Oeste 19 Oeste 0 880.3 -2.1 91
2018-10-10 04:00:00 5.2 6 Norte 37 Sudoeste 0 880.7 -2.4 88
2018-10-10 03:00:00 7.7 14 Sur 28 Sur 0 881.5 -1.4 80
2018-10-10 02:00:00 6.6 9 Sur 21 Sur 0 882.4 -0.9 78
2018-10-10 01:00:00 7.8 14 Sur 23 Sur 0 883.1 -0.3 73
2018-10-10 00:00:00 7.8 8 Sudoeste 18 Sudoeste 0 882.9 -0.3 75
2018-10-09 23:00:00 7.9 3 Nordeste 17 Sur 0 883.3 0.4 70
2018-10-09 22:00:00 9.1 4 Este 15 Sur 0 883.4 0.6 60
2018-10-09 21:00:00 9.7 9 Sudeste 28 Sur 0 883.2 0.1 58
2018-10-09 20:00:00 11.6 12 Sudeste 38 Sur 0 882.9 -0.2 52
2018-10-09 19:00:00 14.1 7 Sudeste 27 Sur 0 882.8 -0.8 43
2018-10-09 18:00:00 15.7 7 Sur 31 Sur 0 883.1 -0.9 37
2018-10-09 17:00:00 18.3 12 Sudeste 30 Sur 0 883.1 -1.4 29
2018-10-09 16:00:00 18.4 14 Sudeste 32 Sur 0 883.6 -1.5 30
2018-10-09 15:00:00 19.2 12 Sur 32 Sur 0 884 -1.5 30
2018-10-09 14:00:00 17.8 9 Sudoeste 31 Sur 0 884.5 -1.3 34
2018-10-09 13:00:00 17.5 12 Sudeste 28 Sur 0 885.1 -0.7 36
2018-10-09 12:00:00 15.6 12 Sudeste 24 Sur 0 885.5 0.1 43
2018-10-09 11:00:00 11.2 5 Sudeste 18 Oeste 0 885.8 0.6 66
2018-10-09 10:00:00 6.4 13 Noroeste 19 Noroeste 0 885.8 0.2 85
2018-10-09 09:00:00 4.3 9 Noroeste 19 Noroeste 0 885.4 -0.4 93
2018-10-09 08:00:00 4.6 8 Noroeste 18 Oeste 0 885.2 -0.9 93
2018-10-09 07:00:00 5.3 10 Oeste 18 Oeste 0 885.6 -1.1 92
2018-10-09 06:00:00 6.3 14 Oeste 19 Oeste 0 885.8 -1.6 89
2018-10-09 05:00:00 7.1 6 Sudoeste 14 Oeste 0 886.1 -1.6 89
2018-10-09 04:00:00 7 6 Sudoeste 18 Oeste 0 886.7 -1.4 90
2018-10-09 03:00:00 7.1 8 Sudoeste 16 Nordeste 0 887.4 -1.2 90
2018-10-09 02:00:00 7.2 4 Este 18 Nordeste 0 887.7 -1.1 89
2018-10-09 01:00:00 7.8 4 Nordeste 18 Nordeste 0 888.1 -0.5 82
2018-10-09 00:00:00 9 5 Norte 17 Oeste 0 888.6 -0.3 77
2018-10-08 23:00:00 8.9 3 Noroeste 17 Sudoeste 0 888.8 -0.1 76
2018-10-08 22:00:00 9.3 6 Noroeste 23 Oeste 0 888.6 -0.3 71
2018-10-08 21:00:00 9.9 5 Noroeste 11 Norte 0 888.9 0.1 70
2018-10-08 20:00:00 10.3 4 Nordeste 19 Este 0 888.9 -0.1 64
2018-10-08 19:00:00 15.2 6 Este 20 Sudeste 0 888.9 -0.5 46
2018-10-08 18:00:00 16 6 Este 24 Sur 0 888.8 -1.1 44
2018-10-08 17:00:00 17 5 Nordeste 22 Nordeste 0 889 -1.3 41
2018-10-08 16:00:00 16.4 8 Nordeste 22 Oeste 0 889.4 -1.1 40
2018-10-08 15:00:00 14.9 7 Norte 20 Nordeste 0 889.9 -0.5 46
2018-10-08 14:00:00 14.5 8 Norte 23 Nordeste 0 890.3 -0.2 49
2018-10-08 13:00:00 14.2 10 Norte 22 Nordeste 0 890.5 0.1 54
2018-10-08 12:00:00 12.1 8 Norte 26 Norte 0 890.4 0.4 63
2018-10-08 11:00:00 12.6 8 Norte 21 Oeste 0 890.5 0.6 66
2018-10-08 10:00:00 9.4 7 Norte 22 Noroeste 0 890.4 0.5 78
2018-10-08 09:00:00 8.1 9 Norte 23 Noroeste 0 890 0.1 83
2018-10-08 08:00:00 8.2 11 Norte -- -- 0 889.9 -0.1 80
2018-10-08 07:00:00 8 10 Norte 24 Norte 0 889.9 -0.6 81
2018-10-08 06:00:00 7.4 12 Norte 23 Norte 0 889.9 -1.1 84
2018-10-08 05:00:00 7.5 13 Norte -- -- 0 890 -1.5 80
2018-10-08 04:00:00 7.5 11 Norte 24 Oeste 0 890.5 -1.5 78
2018-10-08 03:00:00 7.3 10 Norte 26 Noroeste 0 891 -1.2 78
2018-10-08 02:00:00 6.3 8 Oeste 18 Oeste 0 891.5 -0.8 80
2018-10-08 01:00:00 6.2 5 Oeste 16 Oeste 0 892 -0.2 78
2018-10-08 00:00:00 6 9 Sur 15 Sur 0 892.2 0.2 77
2018-10-07 23:00:00 5.6 7 Norte 25 Norte 0 892.3 0.9 76
2018-10-07 22:00:00 5.7 16 Norte 33 Norte 0 892.2 0.9 77
2018-10-07 21:00:00 5.8 16 Norte 34 Norte 0 892 0.6 77
2018-10-07 20:00:00 6.2 15 Norte 30 Norte 0 891.4 0.7 76
2018-10-07 19:00:00 8.1 13 Norte 27 Norte 0 891.3 0.5 65
2018-10-07 18:00:00 10.8 13 Norte 42 Norte 0 891.4 0.6 52
2018-10-07 17:00:00 9.8 -- -- -- -- 0 890.7 -0.6 59
2018-10-07 16:00:00 10.5 21 Norte 46 Norte 0 890.8 -0.9 57
2018-10-07 15:00:00 11.2 17 Norte -- -- 0 890.8 -0.8 52
2018-10-07 14:00:00 10.7 13 Norte -- -- 0 891.3 -0.2 52
2018-10-07 13:00:00 10.1 15 Norte -- -- 0 891.7 0.7 57
2018-10-07 12:00:00 7.5 -- -- -- -- 0 891.6 1.1 71
2018-10-07 11:00:00 7.4 9 Norte 18 Norte 0 891.5 1.7 71
2018-10-07 10:00:00 5.6 8 Noroeste 18 Norte 0 891 1.2 75
2018-10-07 09:00:00 4.2 11 Norte -- -- 0 890.5 0.7 85
2018-10-07 08:00:00 3.7 8 Noroeste 31 Oeste 0 889.8 0 82
2018-10-07 07:00:00 3.4 7 Oeste 18 Noroeste 0 889.8 0 83
2018-10-07 06:00:00 3 5 Oeste 17 Sudoeste 0 889.8 -0.1 84
2018-10-07 05:00:00 3.1 4 Sur 21 Noroeste 0 889.8 -0.2 77
2018-10-07 04:00:00 3.9 9 Noroeste 27 Noroeste 0 889.8 0 74
2018-10-07 03:00:00 4.4 14 Noroeste 27 Noroeste 0 889.9 -0.2 72
2018-10-07 02:00:00 3.9 10 Noroeste 24 Norte 0 890 0.4 79
2018-10-07 01:00:00 4.3 16 Norte -- -- 0 889.8 1 86
2018-10-07 00:00:00 5.5 10 Norte -- -- 0 890.1 1.7 82
2018-10-06 23:00:00 6 14 Norte -- -- 0 889.6 1.6 75
2018-10-06 22:00:00 6.3 10 Noroeste 33 Noroeste 0 888.8 1.7 72
2018-10-06 21:00:00 8 16 Noroeste 32 Noroeste 0 888.4 2.3 55
2018-10-06 20:00:00 9.2 13 Noroeste 37 Oeste 0 888 2.6 54
2018-10-06 19:00:00 11.5 18 Noroeste 37 Oeste 0 887.1 1.8 54
2018-10-06 18:00:00 14.4 16 Oeste 39 Oeste 0 886.1 0.7 56
2018-10-06 17:00:00 18.1 19 Sudoeste 53 Sudoeste 0 885.4 -0.7 38
2018-10-06 16:00:00 19.8 17 Sudoeste 55 Sudoeste 0 885.3 -1.3 36
2018-10-06 15:00:00 21.4 17 Sudoeste 58 Sudoeste 0 885.4 -1.3 33
2018-10-06 14:00:00 19.8 20 Sudoeste 56 Sudoeste 0 886.1 -0.8 34
2018-10-06 13:00:00 20.5 20 Sudoeste 47 Sudoeste 0 886.6 -0.4 29
2018-10-06 12:00:00 19.5 -- -- -- -- 0 886.7 -0.2 29
2018-10-06 11:00:00 16.4 5 Norte 14 Nordeste 0 886.9 0.4 37
2018-10-06 10:00:00 11.7 5 Nordeste 17 Sur 0 887 0.5 49
2018-10-06 09:00:00 8 7 Nordeste 18 Oeste 0 886.9 0.5 64
2018-10-06 08:00:00 8.3 6 Nordeste 16 Nordeste 0 886.5 -0.2 60
2018-10-06 07:00:00 9 7 Norte 17 Oeste 0 886.5 -0.5 56
2018-10-06 06:00:00 10.6 8 Nordeste 24 Sudoeste 0 886.4 -1.1 49
2018-10-06 05:00:00 12.5 5 Oeste 28 Sudoeste 0 886.7 -0.9 40
2018-10-06 04:00:00 10.3 9 Norte 23 Sur 0 887 -0.9 53
2018-10-06 03:00:00 9.7 7 Noroeste 17 Oeste 0 887.5 -0.6 55
2018-10-06 02:00:00 10 4 Norte 21 Sur 0 887.6 -0.5 53
2018-10-06 01:00:00 12.7 7 Noroeste 22 Oeste 0 887.9 -0.1 42
2018-10-06 00:00:00 13.5 8 Noroeste 21 Noroeste 0 888.1 0.2 39
2018-10-05 23:00:00 13.8 7 Noroeste 19 Oeste 0 888.1 0.5 40
2018-10-05 22:00:00 15.1 7 Oeste 17 Oeste 0 888 0.6 35
2018-10-05 21:00:00 16.4 6 Sudoeste 13 Sudoeste 0 887.9 0.6 32
2018-10-05 20:00:00 18.7 8 Sudoeste 21 Sur 0 887.6 0.1 26
2018-10-05 19:00:00 23.9 11 Sudoeste 35 Sur 0 887.4 -0.3 20
2018-10-05 18:00:00 25.9 14 Sudoeste 27 Sur 0 887.3 -0.7 16
2018-10-05 17:00:00 26.7 15 Sudoeste 41 Sudoeste 0 887.5 -0.9 16
2018-10-05 16:00:00 27.4 13 Sudoeste 41 Sudoeste 0 887.7 -1.3 14
2018-10-05 15:00:00 27.4 10 Sudoeste 33 Sudoeste 0 888 -1.6 16
2018-10-05 14:00:00 26.2 15 Sudoeste 27 Sur 0 888.4 -1.5 16
2018-10-05 13:00:00 23.2 14 Sudeste 24 Sudeste 0 889 -0.8 26
2018-10-05 12:00:00 20.7 6 Sudeste 15 Sur 0 889.6 0 31
2018-10-05 11:00:00 15.5 4 Nordeste 18 Oeste 0 889.9 0.5 38
2018-10-05 10:00:00 11.6 8 Oeste 19 Oeste 0 889.8 0.5 45
2018-10-05 09:00:00 9.5 7 Noroeste 25 Oeste 0 889.6 0.3 44
2018-10-05 08:00:00 9.2 16 Oeste 24 Oeste 0 889.4 0 44
2018-10-05 07:00:00 9.8 9 Noroeste 24 Oeste 0 889.3 -0.7 39
2018-10-05 06:00:00 9.7 14 Oeste 25 Oeste 0 889.3 -1.2 39
2018-10-05 05:00:00 9.9 14 Oeste 25 Oeste 0 889.4 -1.3 39
2018-10-05 04:00:00 10.5 9 Noroeste 26 Oeste 0 890 -1 37
2018-10-05 03:00:00 11.5 12 Noroeste 29 Oeste 0 890.5 -0.7 33
2018-10-05 02:00:00 11.3 13 Noroeste 27 Oeste 0 890.7 -0.4 33
2018-10-05 01:00:00 11.4 10 Oeste 25 Oeste 0 891 0 32
2018-10-05 00:00:00 11.9 7 Noroeste 20 Oeste 0 891.2 0.5 31
2018-10-04 23:00:00 12.5 6 Noroeste 18 Oeste 0 891.1 0.6 30
2018-10-04 22:00:00 14.7 12 Noroeste 20 Oeste 0 891 0.7 27
2018-10-04 21:00:00 15.1 6 Noroeste 19 Oeste 0 890.7 0.5 27
2018-10-04 20:00:00 18.6 5 Sudoeste 19 Oeste 0 890.5 0 20
2018-10-04 19:00:00 24.5 4 Nordeste 13 Noroeste 0 890.3 -0.6 14
2018-10-04 18:00:00 26.7 6 Sudeste 14 Sudeste 0 890.2 -1.2 10
2018-10-04 17:00:00 27.5 7 Este 21 Sur 0 890.5 -1.4 10
2018-10-04 16:00:00 27.3 10 Sudeste 23 Sur 0 890.9 -1.4 10
2018-10-04 15:00:00 26.6 13 Sudeste 24 Sudeste 0 891.4 -1.3 10
2018-10-04 14:00:00 25.9 12 Sudeste 23 Sur 0 891.9 -1 11
2018-10-04 13:00:00 24.1 10 Sudeste 21 Sur 0 892.3 -0.6 14
2018-10-04 12:00:00 21.3 10 Sudeste 19 Sur 0 892.7 0.1 16
2018-10-04 11:00:00 17.7 6 Sudeste 22 Oeste 0 892.9 0.3 19
2018-10-04 10:00:00 11.7 6 Noroeste 20 Oeste 0 892.9 0.1 28
2018-10-04 09:00:00 10.8 5 Norte 24 Oeste 0 892.6 -0.2 27
2018-10-04 08:00:00 9.9 10 Noroeste 24 Oeste 0 892.6 -0.7 29
2018-10-04 07:00:00 8.6 11 Oeste 21 Oeste 0 892.8 -1.2 37
2018-10-04 06:00:00 9.9 9 Norte 26 Oeste 0 892.8 -1.6 35
2018-10-04 05:00:00 9.9 10 Noroeste 22 Oeste 0 893.3 -1.4 42
2018-10-04 04:00:00 9.4 6 Noroeste 14 Oeste 0 894 -1.2 48
2018-10-04 03:00:00 10.2 6 Noroeste 18 Oeste 0 894.4 -1.1 49
2018-10-04 02:00:00 11.1 5 Noroeste 15 Noroeste 0 894.7 -1 56
2018-10-04 01:00:00 12.7 8 Noroeste 22 Oeste 0 895.2 -0.8 47
2018-10-04 00:00:00 12.3 6 Noroeste 17 Oeste 0 895.5 -0.7 53
2018-10-03 23:00:00 13.3 6 Oeste 18 Oeste 0 895.7 -0.1 50
2018-10-03 22:00:00 12.6 6 Noroeste 16 Noroeste 0 896 0.3 58
2018-10-03 21:00:00 14.4 3 Oeste 19 Noroeste 0 896.2 0.4 53
2018-10-03 20:00:00 16.6 10 Sur 18 Sur 0 895.8 -0.1 47
2018-10-03 19:00:00 20.6 13 Sudeste 27 Este 0 895.7 -0.5 32
2018-10-03 18:00:00 22.2 15 Sudeste 33 Sudeste 0 895.8 -1 27
2018-10-03 17:00:00 23.4 18 Sudeste 32 Este 0 895.9 -1.5 25
2018-10-03 16:00:00 24.9 12 Este 26 Nordeste 0 896.2 -1.4 22
2018-10-03 15:00:00 24.1 17 Este 31 Este 0 896.8 -0.9 26
2018-10-03 14:00:00 23.4 17 Este 31 Sudeste 0 897.4 -0.3 28
2018-10-03 13:00:00 21.6 17 Sudeste 32 Sudeste 0 897.6 0.3 37
2018-10-03 12:00:00 20.7 8 Oeste 16 Oeste 0 897.7 0.7 39
2018-10-03 11:00:00 18.4 6 Sur 13 Sur 0 897.7 0.7 45
2018-10-03 10:00:00 13.2 3 Noroeste 22 Oeste 0 897.3 0.5 59
2018-10-03 09:00:00 10.2 6 Noroeste 24 Oeste 0 897 0.1 65
2018-10-03 08:00:00 9.4 12 Noroeste 25 Oeste 0 897 -0.2 63
2018-10-03 07:00:00 8.3 18 Oeste 23 Oeste 0 896.8 -0.6 64
2018-10-03 06:00:00 9 7 Noroeste 23 Oeste 0 896.9 -0.5 58
2018-10-03 05:00:00 9 8 Noroeste 24 Oeste 0 897.2 -0.1 52
2018-10-03 04:00:00 7.4 16 Oeste 24 Oeste 0 897.4 0 52
2018-10-03 03:00:00 8.1 12 Noroeste 22 Oeste 0 897.4 0 46
2018-10-03 02:00:00 8.3 16 Oeste 20 Oeste 0 897.3 -0.1 42
2018-10-03 01:00:00 9.5 7 Noroeste 22 Oeste 0 897.4 -0.1 37
2018-10-03 00:00:00 10.1 5 Noroeste 21 Oeste 0 897.4 0.2 33
2018-10-02 23:00:00 9.9 6 Noroeste 23 Oeste 0 897.4 0.8 29
2018-10-02 22:00:00 10.7 4 Oeste 19 Noroeste 0 897.5 1.4 25
2018-10-02 21:00:00 11.5 8 Norte 17 Noroeste 0 897.2 1.3 28
2018-10-02 20:00:00 13.4 4 Norte 13 Oeste 0 896.6 0.7 29
2018-10-02 19:00:00 17.9 6 Este 19 Este 0 896.1 0 25
2018-10-02 18:00:00 19.8 13 Sudeste 21 Sur 0 895.9 -0.5 25
2018-10-02 17:00:00 21.5 9 Norte 25 Noroeste 0 895.9 -1 17
2018-10-02 16:00:00 21.2 12 Norte 22 Norte 0 896.1 -1 17
2018-10-02 15:00:00 21.8 11 Sudeste 25 Sudeste 0 896.4 -0.9 15
2018-10-02 14:00:00 19.7 14 Sudeste 26 Este 0 896.9 -0.3 19
2018-10-02 13:00:00 18.2 8 Este 23 Sur 0 897.1 0.3 26
2018-10-02 12:00:00 14.9 8 Este 19 Sur 0 897.3 1.1 34
2018-10-02 11:00:00 11.1 10 Sur 16 Sur 0 897.2 1.5 44
2018-10-02 10:00:00 5.8 4 Sur 14 Oeste 0 896.8 1.1 68
2018-10-02 09:00:00 3.3 7 Norte 17 Oeste 0 896.2 0.4 73
2018-10-02 08:00:00 2.2 8 Oeste 16 Nordeste 0 895.7 -0.2 76
2018-10-02 07:00:00 2.8 8 Noroeste 17 Oeste 0 895.7 -0.2 77
2018-10-02 06:00:00 2.7 5 Oeste 16 Oeste 0 895.8 -0.1 82
2018-10-02 05:00:00 3.6 7 Norte 20 Norte 0 895.9 -0.3 77
2018-10-02 04:00:00 3.5 3 Sur 17 Oeste 0 895.9 -0.4 81
2018-10-02 03:00:00 5.4 8 Noroeste 23 Norte 0 895.9 -0.4 74
2018-10-02 02:00:00 5.9 10 Norte 22 Oeste 0 896.2 -0.2 78
2018-10-02 01:00:00 6.2 10 Noroeste 22 Norte 0 896.3 0 74
2018-10-02 00:00:00 6.2 13 Norte 29 Norte 0 896.3 0.4 73
2018-10-01 23:00:00 6.9 16 Norte 37 Norte 0 896.4 0.7 72
2018-10-01 22:00:00 7.3 17 Norte 45 Norte 0 896.3 0.7 72
2018-10-01 21:00:00 7.7 22 Norte 38 Norte 0 895.9 0.5 72
2018-10-01 20:00:00 8.6 13 Norte 31 Norte 0 895.7 0.3 70
2018-10-01 19:00:00 11.5 10 Norte 30 Norte 0 895.6 0.3 56
2018-10-01 18:00:00 13.7 9 Norte 31 Noroeste 0 895.4 0 49
2018-10-01 17:00:00 15.4 12 Nordeste 41 Noroeste 0 895.4 -0.6 45
2018-10-01 16:00:00 14.5 23 Norte 43 Norte 0 895.3 -0.7 44
2018-10-01 15:00:00 15.2 19 Norte 41 Norte 0 895.4 -0.7 44
2018-10-01 14:00:00 13.7 19 Norte 41 Norte 0 896 0.1 48
2018-10-01 13:00:00 13.5 16 Norte 37 Noroeste 0 896 0.2 51
2018-10-01 12:00:00 12.8 13 Noroeste 36 Norte 0 896.1 0.8 52
2018-10-01 11:00:00 11.3 11 Norte 29 Norte 0 895.9 1.5 58
2018-10-01 10:00:00 10 12 Noroeste 30 Noroeste 0 895.8 1.7 63
2018-10-01 09:00:00 9.4 9 Oeste 37 Noroeste 0 895.3 1.4 68
2018-10-01 08:00:00 8.7 19 Norte 45 Norte 0 894.4 0.6 73
2018-10-01 07:00:00 9.3 12 Norte 30 Norte 0 894.1 0.3 74
2018-10-01 06:00:00 9.4 12 Norte 37 Norte 0 893.9 0.4 74
2018-10-01 05:00:00 9.3 10 Noroeste 39 Noroeste 0 893.8 0.2 74
2018-10-01 04:00:00 8.5 11 Norte 33 Norte 0 893.8 0.3 77
2018-10-01 03:00:00 7.9 9 Norte 22 Norte 0 893.5 0.1 78
2018-10-01 02:00:00 8.2 9 Noroeste 22 Oeste 0 893.6 0.5 80
2018-10-01 01:00:00 8.7 5 Noroeste 20 Norte 0 893.5 0.7 77
2018-10-01 00:00:00 8.7 5 Oeste 21 Oeste 0 893.4 1.4 78
2018-09-30 23:00:00 9.3 5 Nordeste 18 Oeste 0 893.1 1.4 75
2018-09-30 22:00:00 10.5 7 Norte 19 Noroeste 0 892.8 1.5 78
2018-09-30 21:00:00 12.5 8 Noroeste 22 Noroeste 0 892 0.9 66
2018-09-30 20:00:00 13.9 15 Norte 30 Norte 0 891.7 0.9 59
2018-09-30 19:00:00 17.3 14 Norte 25 Norte 0 891.3 0.7 49
2018-09-30 18:00:00 19.4 14 Norte 27 Nordeste 0 891.1 0.3 42
2018-09-30 17:00:00 23.7 9 Nordeste 21 Nordeste 0 890.8 -0.4 31
2018-09-30 16:00:00 24.2 9 Nordeste 21 Norte 0 890.6 -0.7 30
2018-09-30 15:00:00 24.9 8 Nordeste 19 Oeste 0 890.8 -0.7 24
2018-09-30 14:00:00 23.7 10 Nordeste 21 Nordeste 0 891.2 -0.3 25
2018-09-30 13:00:00 22.9 9 Este 22 Noroeste 0 891.3 -0.1 27
2018-09-30 12:00:00 19.9 6 Oeste 19 Noroeste 0 891.5 0.6 37
2018-09-30 11:00:00 16.2 5 Noroeste 22 Oeste 0 891.5 0.9 47
2018-09-30 10:00:00 11.2 13 Oeste 24 Oeste 0 891.4 1.1 63
2018-09-30 09:00:00 8.1 5 Oeste 22 Oeste 0 890.9 0.7 74
2018-09-30 08:00:00 9.1 6 Noroeste 25 Oeste 0 890.6 0.6 69
2018-09-30 07:00:00 9.7 10 Noroeste 24 Oeste 0 890.3 0.2 70
2018-09-30 06:00:00 9.5 11 Noroeste 25 Oeste 0 890.2 0.1 72
2018-09-30 05:00:00 9.7 6 Noroeste 23 Oeste 0 890 -0.2 75
2018-09-30 04:00:00 9.8 6 Noroeste 21 Oeste 0 890.1 -0.1 79
2018-09-30 03:00:00 10.1 6 Noroeste 21 Oeste 0 890.1 -0.3 79
2018-09-30 02:00:00 10.3 6 Noroeste 20 Oeste 0 890.2 -0.2 80
2018-09-30 01:00:00 11.3 5 Noroeste 21 Oeste 0 890.2 -0.2 81
2018-09-30 00:00:00 11.6 4 Noroeste 13 Oeste 0 890.4 0.3 81
2018-09-29 23:00:00 12.8 6 Noroeste 15 Noroeste 0 890.4 0.6 77
2018-09-29 22:00:00 13.1 2 Sudeste 15 Oeste 0 890.4 0.8 73
2018-09-29 21:00:00 14.5 11 Noroeste 22 Noroeste 0 890.1 0.5 68
2018-09-29 20:00:00 16.6 12 Norte 21 Noroeste 0 889.8 0 63
2018-09-29 19:00:00 19.5 10 Norte 26 Norte 0 889.6 -0.4 52
2018-09-29 18:00:00 21.9 13 Norte 26 Norte 0 889.6 -0.6 48
2018-09-29 17:00:00 20.5 11 Norte 25 Noroeste 0 889.8 -1 52
2018-09-29 16:00:00 23.1 8 Norte 23 Oeste 0 890 -1.5 38
2018-09-29 15:00:00 25 7 Norte 26 Noroeste 0 890.2 -1.9 32
2018-09-29 14:00:00 23.8 9 Norte 23 Oeste 0 890.8 -1.5 37
2018-09-29 13:00:00 21.4 9 Nordeste 20 Oeste 0 891.5 -0.9 44
2018-09-29 12:00:00 20.6 10 Noroeste 21 Oeste 0 892.1 -0.2 45
2018-09-29 11:00:00 18.8 4 Sur 14 Oeste 0 892.3 0.1 57
2018-09-29 10:00:00 13.8 3 Noroeste 13 Noroeste 0 892.4 0.2 77
2018-09-29 09:00:00 11.5 4 Noroeste 14 Noroeste 0 892.3 -0.1 85
2018-09-29 08:00:00 11.6 5 Noroeste 24 Oeste 0 892.2 -0.3 84
2018-09-29 07:00:00 11.5 6 Noroeste 21 Oeste 0 892.2 -0.7 85
2018-09-29 06:00:00 11.2 7 Noroeste 22 Oeste 0 892.4 -0.8 86
2018-09-29 05:00:00 11 6 Oeste 20 Oeste 0 892.5 -0.7 87
2018-09-29 04:00:00 11.8 4 Noroeste 15 Noroeste 0 892.9 -0.6 83
2018-09-29 03:00:00 12.7 4 Noroeste 16 Oeste 0 893.2 -0.5 81
2018-09-29 02:00:00 13.3 5 Noroeste 18 Noroeste 0 893.2 -0.5 79
2018-09-29 01:00:00 14 8 Noroeste 18 Oeste 0 893.5 -0.3 81
2018-09-29 00:00:00 14.4 7 Noroeste 17 Oeste 0 893.7 0.3 82
2018-09-28 23:00:00 14.7 8 Noroeste 18 Oeste 0 893.7 0.4 82
2018-09-28 22:00:00 15.7 4 Sudoeste 15 Oeste 0 893.8 0.7 75
2018-09-28 21:00:00 16.5 7 Sudeste 15 Oeste 0 893.4 0.4 67
2018-09-28 20:00:00 17.9 6 Norte 18 Oeste 0 893.3 0.4 66
2018-09-28 19:00:00 20.3 11 Norte 24 Noroeste 0 893.1 -0.3 57
2018-09-28 18:00:00 22.3 7 Este 24 Este 0 893 -0.7 40
2018-09-28 17:00:00 25.6 5 Nordeste 20 Norte 0 892.9 -1.5 33
2018-09-28 16:00:00 26.2 9 Este 24 Este 0 893.4 -1.6 27
2018-09-28 15:00:00 27.3 10 Sudeste 29 Sur 0 893.7 -1.7 29
2018-09-28 14:00:00 26.4 10 Este 22 Sur 0 894.4 -1.2 30
2018-09-28 13:00:00 25 7 Este 19 Sur 0 895 -0.4 32
2018-09-28 12:00:00 23.4 8 Este 17 Sur 0 895.4 0.1 39
2018-09-28 11:00:00 18.9 4 Oeste 15 Oeste 0 895.6 0.4 57
2018-09-28 10:00:00 15.3 6 Noroeste 12 Noroeste 0 895.4 0.2 66
2018-09-28 09:00:00 13 8 Noroeste 24 Oeste 0 895.3 0.1 74
2018-09-28 08:00:00 12.7 8 Noroeste 18 Oeste 0 895.2 -0.2 74
2018-09-28 07:00:00 12.8 7 Noroeste 21 Oeste 0 895.2 -0.8 75
2018-09-28 06:00:00 13.7 7 Noroeste 18 Oeste 0 895.2 -1.3 72
2018-09-28 05:00:00 14 9 Noroeste 19 Oeste 0 895.4 -1.6 73
2018-09-28 04:00:00 14.3 9 Noroeste 18 Oeste 0 896 -1.4 73
2018-09-28 03:00:00 14.6 10 Noroeste 18 Noroeste 0 896.5 -1.2 71
2018-09-28 02:00:00 14.9 8 Noroeste 22 Oeste 0 897 -0.9 69
2018-09-28 01:00:00 15.2 10 Noroeste 21 Oeste 0 897.4 -0.4 67
2018-09-28 00:00:00 15.7 10 Noroeste 21 Oeste 0 897.7 0.1 65
2018-09-27 23:00:00 15.9 15 Oeste 20 Oeste 0 897.9 0.4 65
2018-09-27 22:00:00 17 11 Noroeste 20 Oeste 0 897.8 0.4 60
2018-09-27 21:00:00 18 12 Oeste 19 Oeste 0 897.6 0.1 58
2018-09-27 20:00:00 19.6 5 Noroeste 17 Oeste 0 897.5 -0.3 51
2018-09-27 19:00:00 24.5 3 Este 11 Este 0 897.4 -0.6 39
2018-09-27 18:00:00 24.1 4 Este 14 Nordeste 0 897.5 -0.8 42
2018-09-27 17:00:00 24.3 6 Nordeste 16 Norte 0 897.8 -1.2 38
2018-09-27 16:00:00 28 10 Sudeste 22 Sudeste 0 898 -1.5 27
2018-09-27 15:00:00 28.4 11 Sudeste 26 Sudeste 0 898.3 -1.7 27
2018-09-27 14:00:00 27.5 10 Sudeste 24 Sudeste -- 899 -1.1 29
2018-09-27 13:00:00 26.3 12 Sudeste 24 Sur 0 899.5 -0.5 35
2018-09-27 12:00:00 23.3 10 Sudeste 21 Sur 0 900 0.3 46
2018-09-27 11:00:00 18.8 3 Sur 13 Oeste 0 900.1 0.5 61
2018-09-27 10:00:00 14.1 3 Noroeste 22 Oeste 0 900 0.2 74
2018-09-27 09:00:00 12.1 5 Noroeste 23 Oeste 0 899.7 -0.2 81
2018-09-27 08:00:00 11.6 6 Noroeste 22 Oeste 0 899.6 -0.5 81
2018-09-27 07:00:00 12.1 6 Noroeste 23 Oeste 0 899.8 -0.4 80
2018-09-27 06:00:00 11.5 7 Noroeste 23 Oeste 0 899.9 -0.1 81
2018-09-27 05:00:00 12 7 Oeste 19 Oeste 0 900.1 0.2 75
2018-09-27 04:00:00 12.3 5 Noroeste 13 Oeste 0 900.2 0.6 74
2018-09-27 03:00:00 11.9 5 Noroeste 13 Oeste 0 900 0.5 75
2018-09-27 02:00:00 12.8 3 Sudoeste 18 Oeste 0 899.9 0.8 69
2018-09-27 01:00:00 14.9 8 Noroeste 21 Noroeste 0 899.6 0.7 59
2018-09-27 00:00:00 14.3 6 Noroeste 18 Oeste 0 899.5 1.3 65
2018-09-26 23:00:00 15.3 5 Oeste 14 Sudoeste 0 899.1 1.5 55
2018-09-26 22:00:00 17.2 12 Noroeste 21 Oeste 0 898.9 1.5 48
2018-09-26 21:00:00 19 17 Oeste 22 Oeste 0 898.2 1.2 42
2018-09-26 20:00:00 22.7 4 Sur 23 Sur 0 897.6 0.6 31
2018-09-26 19:00:00 26.5 8 Sudoeste 23 Sur 0 897.4 0.1 23
2018-09-26 18:00:00 27.2 11 Sur 25 Sur 0 897 -0.4 23
2018-09-26 17:00:00 27.8 7 Sudoeste 28 Sur 0 897 -0.7 24
2018-09-26 16:00:00 27.5 13 Sur 31 Sur 0 897.3 -0.7 26
2018-09-26 15:00:00 25.9 15 Sur 31 Sur 0 897.4 -0.8 30
2018-09-26 14:00:00 24.1 18 Sur 28 Sur 0 897.7 -0.3 30
2018-09-26 13:00:00 22.5 15 Sudeste 25 Sur 0 898 0.4 42
2018-09-26 12:00:00 19.8 10 Sur 24 Sur 0 898.2 0.9 50
2018-09-26 11:00:00 15 3 Este 18 Oeste 0 898 1.2 52
2018-09-26 10:00:00 9.7 9 Oeste 18 Oeste 0 897.6 1.1 65
2018-09-26 09:00:00 7.8 13 Oeste 22 Oeste 0 897.3 0.8 68
2018-09-26 08:00:00 7.7 13 Noroeste 21 Oeste 0 896.8 0.3 66
2018-09-26 07:00:00 7.8 12 Oeste 23 Oeste 0 896.5 -0.1 64
2018-09-26 06:00:00 8 14 Oeste 23 Oeste 0 896.5 -0.2 61
2018-09-26 05:00:00 8 15 Oeste 22 Oeste 0 896.5 -0.4 58
2018-09-26 04:00:00 8.5 13 Oeste 23 Oeste 0 896.6 -0.2 53
2018-09-26 03:00:00 8.5 14 Oeste -- -- 0 896.7 0 49
2018-09-26 02:00:00 8.1 9 Noroeste -- -- 0 896.9 0.2 44
2018-09-26 01:00:00 8.6 13 Oeste -- -- 0 896.8 0.5 48
2018-09-26 00:00:00 8.3 -- -- -- -- 0 896.7 0.8 48
2018-09-25 23:00:00 8.5 5 Oeste 17 Oeste 0 896.7 1.2 60
2018-09-25 22:00:00 9.8 3 Norte 13 Noroeste 0 896.3 1.1 56
2018-09-25 21:00:00 11.8 0 Calma 12 Noroeste 0 895.9 0.8 48
2018-09-25 20:00:00 14.9 7 Norte 22 Noroeste 0 895.5 0.2 33
2018-09-25 19:00:00 20.5 9 Noroeste 18 Nordeste 0 895.2 -0.4 24
2018-09-25 18:00:00 21.8 9 Norte 18 Noroeste 0 895.1 -0.8 21
2018-09-25 17:00:00 21.6 10 Norte 21 Noroeste 0 895.3 -1.2 18
2018-09-25 16:00:00 23 10 Este 23 Sur 0 895.6 -1.4 14
2018-09-25 15:00:00 21.8 13 Sudeste 25 Sudeste 0 895.9 -1.5 11
2018-09-25 14:00:00 20.8 10 Sudeste 20 Este 0 896.5 -0.9 13
2018-09-25 13:00:00 18.9 9 Sudeste 18 Sudoeste 0 897 0.1 18
2018-09-25 12:00:00 15.1 3 Este 20 Sudoeste 0 897.4 0.7 31
2018-09-25 11:00:00 11.4 10 Sur -- -- 0 897.4 0.8 49
2018-09-25 10:00:00 4.8 6 Noroeste 23 Oeste 0 896.9 0.3 70
2018-09-25 09:00:00 1.9 7 Noroeste 16 Noroeste 0 896.7 -0.3 75
2018-09-25 08:00:00 2.3 7 Noroeste 17 Noroeste 0 896.6 -0.7 70
2018-09-25 07:00:00 3.4 10 Norte 18 Oeste 0 896.6 -0.8 62
2018-09-25 06:00:00 3.3 7 Noroeste 18 Oeste 0 897 -0.4 53
2018-09-25 05:00:00 2.6 3 Sur 12 Sur 0 897.3 -0.3 67
2018-09-25 04:00:00 4.4 6 Sur 18 Nordeste 0 897.4 -0.6 35
2018-09-25 03:00:00 5.8 9 Noroeste -- -- 0 897.4 -0.7 30
2018-09-25 02:00:00 5.8 5 Norte 19 Oeste 0 897.6 -0.5 37
2018-09-25 01:00:00 6 8 Noroeste 23 Oeste 0 898 0.3 46
2018-09-25 00:00:00 7.2 7 Nordeste 19 Nordeste 0 898.1 0.5 44
2018-09-24 23:00:00 7.5 5 Norte 16 Oeste 0 898.1 0.7 50
2018-09-24 22:00:00 8.8 6 Noroeste 24 Oeste 0 897.7 0.4 55
2018-09-24 21:00:00 9.6 3 Noroeste 14 Oeste 0 897.6 0.4 55
2018-09-24 20:00:00 13.4 5 Nordeste 19 Norte 0 897.4 -0.1 46
2018-09-24 19:00:00 16.9 7 Norte 24 Nordeste 0 897.3 -0.5 42
2018-09-24 18:00:00 18.1 11 Norte 33 Nordeste 0 897.2 -1.1 49
2018-09-24 17:00:00 19.8 14 Nordeste 31 Nordeste 0 897.5 -1.3 48
2018-09-24 16:00:00 20.2 12 Norte 27 Norte 0 897.8 -1.5 46
2018-09-24 15:00:00 20.7 12 Nordeste 26 Nordeste 0 898.3 -1.3 47
2018-09-24 14:00:00 18.5 14 Norte -- -- 0 898.8 -0.7 54
2018-09-24 13:00:00 17.2 13 Norte -- -- 0 899.3 0.3 59
2018-09-24 12:00:00 15.6 12 Noroeste -- -- 0 899.6 1.1 63
2018-09-24 11:00:00 14.4 11 Norte 25 Noroeste 0 899.5 1.6 70
2018-09-24 10:00:00 12.8 11 Norte -- -- 0 899 1.2 77
2018-09-24 09:00:00 12.1 -- -- -- -- 0 898.5 0.6 84
2018-09-24 08:00:00 12.4 12 Norte 26 Nordeste 0 897.9 0.1 90
2018-09-24 07:00:00 13 8 Noroeste 29 Noroeste 0 897.8 -0.2 88
2018-09-24 06:00:00 12.9 12 Noroeste 23 Norte 0 897.9 -0.4 91
2018-09-24 05:00:00 13.4 12 Noroeste 23 Norte 0 897.8 -0.7 91
2018-09-24 04:00:00 14.7 13 Noroeste -- -- 0 898 -0.4 79
2018-09-24 03:00:00 14.7 13 Noroeste 28 Noroeste 0 898.3 0 79
2018-09-24 02:00:00 13.4 8 Noroeste 18 Noroeste 0 898.5 0.4 90
2018-09-24 01:00:00 13.7 5 Noroeste 18 Noroeste 0 898.4 0.7 89
2018-09-24 00:00:00 14.9 12 Noroeste 20 Noroeste 0 898.3 1 85
2018-09-23 23:00:00 15.5 14 Noroeste 26 Norte 0 898.1 1.2 83
2018-09-23 22:00:00 16.8 12 Norte 23 Noroeste 0 897.7 1.2 76
2018-09-23 21:00:00 18.2 12 Noroeste 18 Sudoeste 0 897.3 1.4 71
2018-09-23 20:00:00 21 7 Nordeste 20 Norte 0 896.9 1.1 62
2018-09-23 19:00:00 22.9 13 Norte 27 Norte 0 896.5 0.7 57
2018-09-23 18:00:00 26.5 9 Norte 24 Nordeste 0 895.9 0 44
2018-09-23 17:00:00 24.7 7 Norte 32 Norte 0 895.8 -0.7 47
2018-09-23 16:00:00 31.4 13 Sudeste 29 Sur 0 895.8 -1.1 21
2018-09-23 15:00:00 31.6 7 Sudoeste 31 Sur 0 895.9 -1.5 23
2018-09-23 14:00:00 29.8 14 Sudoeste 30 Sur 0 896.5 -0.8 26
2018-09-23 13:00:00 26.6 7 Nordeste 17 Sur 0 896.9 -0.1 36
2018-09-23 12:00:00 23.3 4 Nordeste 18 Sur 0 897.4 0.5 50
2018-09-23 11:00:00 19.3 4 Sudoeste 17 Oeste 0 897.3 0.6 67
2018-09-23 10:00:00 15.5 6 Noroeste 15 Oeste 0 897 0.3 81
2018-09-23 09:00:00 13.1 7 Noroeste 24 Oeste 0 896.9 0.2 91
2018-09-23 08:00:00 12.6 6 Noroeste 22 Oeste 0 896.7 -0.1 89
2018-09-23 07:00:00 13.2 4 Noroeste 15 Noroeste 0 896.7 -0.4 90
2018-09-23 06:00:00 13.7 6 Noroeste 18 Oeste 0 896.7 -0.8 89
2018-09-23 05:00:00 13.6 4 Noroeste 21 Oeste 0 896.8 -0.9 88
2018-09-23 04:00:00 14.7 12 Noroeste 23 Noroeste 0 897.1 -0.7 85
2018-09-23 03:00:00 14.8 10 Noroeste 21 Noroeste 0 897.5 -0.3 85
2018-09-23 02:00:00 15.1 10 Noroeste 21 Oeste 0 897.7 0.1 87
2018-09-23 01:00:00 15 7 Noroeste 19 Oeste 0 897.8 0.7 88
2018-09-23 00:00:00 16 -- -- -- -- 0 897.8 1.3 81
2018-09-22 23:00:00 16.8 -- -- -- -- 0 897.6 1.5 78
2018-09-22 22:00:00 18.1 10 Noroeste -- -- 0 897.1 1.3 74
2018-09-22 21:00:00 19.8 6 Norte -- -- 0 896.5 1 65
2018-09-22 20:00:00 23.9 4 Nordeste -- -- 0 896.1 0.5 49
2018-09-22 19:00:00 27 9 Este 30 Sur 0 895.8 0 35
2018-09-22 18:00:00 28.9 9 Sudeste 26 Este 0 895.5 -0.4 27
2018-09-22 17:00:00 29 10 Sudeste 26 Sur 0 895.6 -0.5 28
2018-09-22 16:00:00 29.7 9 Sudeste -- -- 0 895.8 -0.5 26
2018-09-22 15:00:00 28.8 13 Sur 30 Sur 0 895.9 -0.5 28
2018-09-22 14:00:00 27.7 12 Sudeste 28 Sudeste 0 896.1 0 31
2018-09-22 13:00:00 26 10 Sudeste 24 Sur 0 896.3 0.4 35
2018-09-22 12:00:00 22.6 9 Sudeste 18 Sur 0 896.4 0.9 46
2018-09-22 11:00:00 16.7 2 Sur 13 Oeste 0 896.1 0.9 69
2018-09-22 10:00:00 12.4 2 Norte 20 Oeste 0 895.9 1.1 96
2018-09-22 09:00:00 10.3 8 Oeste 22 Oeste 0 895.5 0.7 96
2018-09-22 08:00:00 8.6 9 Oeste 19 Oeste 0 895.2 0.2 97
2018-09-22 07:00:00 9.4 6 Noroeste 20 Oeste 0 894.8 -0.4 97
2018-09-22 06:00:00 9.7 4 Norte 21 Oeste 0 894.8 -0.6 97
2018-09-22 05:00:00 10.1 3 Norte 18 Oeste 0 895 -0.5 97
2018-09-22 04:00:00 10.7 8 Noroeste 20 Oeste 0 895.2 -0.4 97
2018-09-22 03:00:00 11.5 5 Noroeste 22 Oeste 0 895.4 0 97
2018-09-22 02:00:00 12.1 4 Noroeste 21 Oeste 0 895.5 0.2 95
2018-09-22 01:00:00 12.8 0 Calma 5 Este 0 895.6 0.6 94
2018-09-22 00:00:00 12.7 4 Este 14 Noroeste 0 895.4 1.4 92
2018-09-21 23:00:00 13.7 5 Noroeste 14 Oeste 0 895.3 1.5 88
2018-09-21 22:00:00 14.3 6 Noroeste 22 Norte 0 895 1.6 83
2018-09-21 21:00:00 15.7 3 Sur 17 Noroeste 0 894 0.7 73
2018-09-21 20:00:00 17.4 12 Norte 19 Noroeste 0 893.8 0.7 68
2018-09-21 19:00:00 20.1 8 Norte 19 Noroeste 0 893.4 0.2 55
2018-09-21 18:00:00 21.9 9 Norte 21 Noroeste 0 893.3 0.2 45
2018-09-21 17:00:00 24.9 9 Este 19 Sudeste 0 893.1 -0.5 30
2018-09-21 16:00:00 24.5 12 Este 23 Sur 0 893.2 -0.4 30
2018-09-21 15:00:00 24 14 Sudeste 25 Sudeste 0 893.1 -0.5 33
2018-09-21 14:00:00 22.9 12 Sudeste 22 Sudeste 0 893.6 0.5 37
2018-09-21 13:00:00 21.6 11 Sudeste 20 Sur 0 893.6 1 40
2018-09-21 12:00:00 19 8 Oeste 15 Oeste 0 893.6 1.6 54
2018-09-21 11:00:00 16.5 3 Noroeste 14 Noroeste 0 893.1 1.6 56
2018-09-21 10:00:00 12.7 4 Noroeste 23 Oeste 0 892.6 1.8 62
2018-09-21 09:00:00 11 11 Oeste 22 Oeste 0 892 1.3 65
2018-09-21 08:00:00 10.8 5 Noroeste 23 Oeste 0 891.5 1 68
2018-09-21 07:00:00 10 4 Oeste 21 Oeste 0 890.8 0.2 73
2018-09-21 06:00:00 10.1 5 Oeste 22 Oeste 0 890.7 -0.1 74
2018-09-21 05:00:00 11.2 3 Noroeste 21 Oeste 0 890.5 -0.5 69
2018-09-21 04:00:00 12.1 8 Noroeste 21 Oeste 0 890.6 -0.6 66
2018-09-21 03:00:00 12.6 5 Noroeste 19 Oeste 0 890.8 -0.6 69
2018-09-21 02:00:00 12.5 6 Noroeste 19 Oeste 0 891 -0.3 73
2018-09-21 01:00:00 13.2 3 Oeste 15 Oeste 0 891.2 0.3 71
2018-09-21 00:00:00 14.5 9 Noroeste 17 Noroeste 0 891.4 0.7 64
2018-09-20 23:00:00 16.8 12 Noroeste 19 Oeste 0 891.3 0.8 52
2018-09-20 22:00:00 19.9 9 Sudoeste 24 Sudoeste 0 890.9 0.3 35
2018-09-20 21:00:00 19.8 8 Oeste 20 Oeste 0 890.7 0 45
2018-09-20 20:00:00 22.8 4 Oeste 34 Sudoeste 0 890.5 -0.6 34
2018-09-20 19:00:00 25.7 15 Sudoeste 43 Oeste 0 890.6 -0.8 26
2018-09-20 18:00:00 27.9 20 Sudoeste 34 Sur 0 890.7 -1.3 18
2018-09-20 17:00:00 28.2 14 Sudoeste 35 Sur 0 891.1 -1.3 22
2018-09-20 16:00:00 29 12 Sudoeste 30 Sur 0 891.4 -1.5 22
2018-09-20 15:00:00 28.5 15 Sudoeste 40 Oeste 0 892 -1.1 23
2018-09-20 14:00:00 27.2 13 Sudoeste 35 Sudoeste 0 892.4 -0.7 23
2018-09-20 13:00:00 26.4 12 Sudoeste 34 Sudoeste 0 892.9 -0.1 24
2018-09-20 12:00:00 24.7 12 Sur 22 Sur 0 893.1 0 38
2018-09-20 11:00:00 18.5 7 Oeste 12 Oeste 0 893.1 0.1 64
2018-09-20 10:00:00 14.3 4 Noroeste 9 Noroeste 0 893 0 70
2018-09-20 09:00:00 12.3 5 Noroeste 21 Oeste 0 893.1 -0.2 77
2018-09-20 08:00:00 11.5 9 Noroeste 24 Oeste 0 893 -0.5 80
2018-09-20 07:00:00 11.1 6 Noroeste 21 Oeste 0 893 -0.7 79
2018-09-20 06:00:00 10 6 Noroeste 19 Oeste 0 893.3 -0.6 82
2018-09-20 05:00:00 10.8 4 Oeste 18 Oeste 0 893.5 -0.7 78
2018-09-20 04:00:00 11.6 5 Noroeste 21 Oeste 0 893.7 -0.7 75
2018-09-20 03:00:00 12.9 5 Noroeste 16 Noroeste 0 893.9 -0.5 68
2018-09-20 02:00:00 12.7 5 Noroeste 17 Noroeste 0 894.2 -0.2 73
2018-09-20 01:00:00 13.4 7 Noroeste 17 Noroeste 0 894.4 0.3 73
2018-09-20 00:00:00 14.4 12 Noroeste 18 Oeste 0 894.4 0.9 73